createdAt,value
2022-12-25T00:00:39.595Z,40.10
2022-12-25T00:02:59.449Z,41.22
2022-12-25T00:05:19.569Z,38.72
2022-12-25T00:07:39.176Z,43.67
2022-12-25T00:09:59.004Z,49.88
2022-12-25T00:12:20.376Z,41.55
2022-12-25T00:14:40.369Z,44.35
2022-12-25T00:17:00.654Z,35.15
2022-12-25T00:19:20.788Z,39.05
2022-12-25T00:21:41.164Z,37.40
2022-12-25T00:24:01.117Z,42.85
2022-12-25T00:26:21.171Z,44.25
2022-12-25T00:28:41.345Z,39.85
2022-12-25T00:31:13.026Z,40.97
2022-12-25T00:33:35.813Z,47.67
2022-12-25T00:35:59.870Z,35.45
2022-12-25T00:38:19.778Z,34.05
2022-12-25T00:40:50.327Z,44.63
2022-12-25T00:43:09.975Z,40.85
2022-12-25T00:45:40.431Z,38.47
2022-12-25T00:48:00.764Z,42.75
2022-12-25T00:50:25.289Z,41.78
2022-12-25T00:52:45.390Z,37.20
2022-12-25T00:55:05.572Z,34.88
2022-12-25T00:57:25.544Z,41.40
2022-12-25T00:59:45.254Z,34.63
2022-12-25T01:02:23.448Z,33.58
2022-12-25T01:04:43.756Z,36.78
2022-12-25T01:07:03.465Z,39.63
2022-12-25T01:09:41.934Z,38.85
2022-12-25T01:12:02.622Z,38.17
2022-12-25T01:14:22.700Z,38.05
2022-12-25T01:16:43.942Z,31.77
2022-12-25T01:19:03.937Z,31.08
2022-12-25T01:21:24.201Z,27.60
2022-12-25T01:23:44.399Z,32.42
2022-12-25T01:26:05.601Z,33.65
2022-12-25T01:28:25.644Z,34.03
2022-12-25T01:30:49.323Z,27.17
2022-12-25T01:33:09.173Z,31.98
2022-12-25T01:35:28.898Z,31.20
2022-12-25T01:37:50.602Z,29.35
2022-12-25T01:40:11.009Z,30.33
2022-12-25T01:42:30.660Z,33.35
2022-12-25T01:44:50.527Z,30.27
2022-12-25T01:47:10.312Z,28.23
2022-12-25T01:49:34.119Z,25.73
2022-12-25T01:52:02.076Z,28.70
2022-12-25T01:54:35.530Z,26.98
2022-12-25T01:56:59.081Z,29.02
2022-12-25T01:59:23.027Z,29.10
2022-12-25T02:01:43.700Z,33.13
2022-12-25T02:04:15.838Z,27.42
2022-12-25T02:06:36.075Z,25.90
2022-12-25T02:08:57.720Z,28.45
2022-12-25T02:11:36.476Z,29.15
2022-12-25T02:13:56.092Z,40.88
2022-12-25T02:16:20.439Z,36.97
2022-12-25T02:18:46.518Z,36.22
2022-12-25T02:21:25.173Z,31.10
2022-12-25T02:24:20.863Z,37.58
2022-12-25T02:27:01.590Z,40.83
2022-12-25T02:29:44.712Z,33.65
2022-12-25T02:32:28.229Z,38.80
2022-12-25T02:35:00.342Z,28.15
2022-12-25T02:37:32.058Z,31.85
2022-12-25T02:40:04.444Z,28.67
2022-12-25T02:42:50.229Z,29.27
2022-12-25T02:45:29.658Z,26.08
2022-12-25T02:48:08.101Z,34.28
2022-12-25T02:50:47.073Z,35.25
2022-12-25T02:53:26.820Z,32.28
2022-12-25T02:56:08.180Z,35.63
2022-12-25T02:58:49.465Z,33.67
2022-12-25T03:01:35.706Z,36.15
2022-12-25T03:04:18.191Z,34.45
2022-12-25T03:06:42.388Z,30.80
2022-12-25T03:09:24.131Z,37.60
2022-12-25T03:11:49.913Z,157.02
2022-12-25T03:14:28.053Z,69.05
2022-12-25T03:16:53.022Z,38.55
2022-12-25T03:19:31.538Z,41.17
2022-12-25T03:22:12.662Z,34.35
2022-12-25T03:25:08.466Z,24.10
2022-12-25T03:27:32.947Z,31.20
2022-12-25T03:30:11.652Z,145.05
2022-12-25T03:32:46.832Z,67.07
2022-12-25T03:35:22.840Z,39.88
2022-12-25T03:38:13.441Z,46.25
2022-12-25T03:41:00.227Z,64.38
2022-12-25T03:44:04.806Z,77.57
2022-12-25T03:49:38.192Z,208.02
2022-12-25T03:52:20.168Z,139.82
2022-12-25T03:55:01.558Z,56.38
2022-12-25T03:57:39.921Z,86.35
2022-12-25T04:00:18.380Z,38.33
2022-12-25T04:02:56.929Z,98.13
2022-12-25T04:05:35.247Z,332.05
2022-12-25T04:08:21.475Z,243.38
2022-12-25T04:10:59.971Z,98.82
2022-12-25T04:13:38.828Z,41.22
2022-12-25T04:16:17.461Z,70.20
2022-12-25T04:18:56.310Z,72.80
2022-12-25T04:21:34.827Z,106.10
2022-12-25T04:24:13.099Z,64.75
2022-12-25T04:26:51.446Z,117.25
2022-12-25T04:29:30.089Z,64.65
2022-12-25T04:32:09.700Z,163.95
2022-12-25T04:34:48.590Z,116.55
2022-12-25T04:37:08.482Z,49.58
2022-12-25T04:39:28.123Z,97.22
2022-12-25T04:41:48.255Z,224.75
2022-12-25T04:44:09.122Z,111.43
2022-12-25T04:46:29.168Z,41.53
2022-12-25T04:48:49.132Z,68.28
2022-12-25T04:51:17.945Z,34.63
2022-12-25T04:53:37.567Z,72.88
2022-12-25T04:56:01.503Z,77.47
2022-12-25T04:58:23.714Z,46.30
2022-12-25T05:00:43.788Z,48.78
2022-12-25T05:03:04.075Z,32.25
2022-12-25T05:05:25.927Z,43.20
2022-12-25T05:07:45.545Z,67.78
2022-12-25T05:10:09.469Z,105.68
2022-12-25T05:12:29.169Z,296.63
2022-12-25T05:14:48.650Z,327.45
2022-12-25T05:17:08.713Z,254.88
2022-12-25T05:19:29.177Z,61.70
2022-12-25T05:21:48.837Z,51.75
2022-12-25T05:24:08.358Z,270.15
2022-12-25T05:26:28.418Z,258.70
2022-12-25T05:28:48.684Z,197.82
2022-12-25T05:31:08.445Z,119.03
2022-12-25T05:33:29.558Z,74.13
2022-12-25T05:35:49.642Z,365.75
2022-12-25T05:38:09.752Z,107.47
2022-12-25T05:40:29.437Z,78.70
2022-12-25T05:42:49.293Z,130.55
2022-12-25T05:45:10.138Z,133.55
2022-12-25T05:47:30.164Z,40.70
2022-12-25T05:49:50.028Z,139.25
2022-12-25T05:52:09.710Z,94.55
2022-12-25T05:54:29.703Z,21.73
2022-12-25T05:56:49.650Z,26.98
2022-12-25T05:59:09.916Z,39.28
2022-12-25T06:01:30.304Z,68.05
2022-12-25T06:03:50.864Z,70.95
2022-12-25T06:06:11.369Z,39.67
2022-12-25T06:08:31.153Z,78.05
2022-12-25T06:10:51.393Z,23.75
2022-12-25T06:13:11.710Z,40.83
2022-12-25T06:15:31.712Z,165.65
2022-12-25T06:17:51.818Z,132.88
2022-12-25T06:20:12.161Z,34.95
2022-12-25T06:22:33.301Z,57.75
2022-12-25T06:24:53.448Z,31.55
2022-12-25T06:27:14.763Z,51.80
2022-12-25T06:29:34.932Z,292.10
2022-12-25T06:31:56.606Z,321.73
2022-12-25T06:34:16.971Z,201.07
2022-12-25T06:36:37.311Z,337.15
2022-12-25T06:39:00.590Z,193.15
2022-12-25T06:41:22.931Z,178.10
2022-12-25T06:43:48.778Z,137.93
2022-12-25T06:46:11.440Z,110.05
2022-12-25T06:48:32.856Z,109.95
2022-12-25T06:50:52.572Z,52.85
2022-12-25T06:53:12.108Z,230.60
2022-12-25T06:55:32.105Z,215.27
2022-12-25T06:57:51.856Z,89.45
2022-12-25T07:00:12.161Z,65.55
2022-12-25T07:02:34.082Z,44.28
2022-12-25T07:04:54.142Z,149.77
2022-12-25T07:07:14.024Z,146.35
2022-12-25T07:09:34.136Z,175.23
2022-12-25T07:12:01.529Z,161.63
2022-12-25T07:14:24.366Z,279.40
2022-12-25T07:16:45.511Z,360.35
2022-12-25T07:19:05.585Z,361.45
2022-12-25T07:21:29.329Z,384.08
2022-12-25T07:23:49.676Z,356.55
2022-12-25T07:26:12.155Z,333.52
2022-12-25T07:28:32.422Z,403.93
2022-12-25T07:30:53.556Z,315.23
2022-12-25T07:33:13.752Z,375.90
2022-12-25T07:35:34.089Z,474.60
2022-12-25T07:37:54.188Z,506.98
2022-12-25T07:40:14.073Z,491.33
2022-12-25T07:42:34.358Z,276.88
2022-12-25T07:44:54.455Z,120.40
2022-12-25T07:47:14.543Z,109.43
2022-12-25T07:49:35.573Z,407.02
2022-12-25T07:51:56.073Z,354.15
2022-12-25T07:54:16.064Z,332.45
2022-12-25T07:56:36.429Z,51.08
2022-12-25T07:58:56.636Z,77.68
2022-12-25T08:01:22.590Z,84.95
2022-12-25T08:03:42.958Z,167.38
2022-12-25T08:06:05.839Z,56.35
2022-12-25T08:08:25.895Z,64.32
2022-12-25T08:10:47.390Z,163.65
2022-12-25T08:13:12.431Z,97.40
2022-12-25T08:15:34.345Z,101.30
2022-12-25T08:17:54.656Z,301.40
2022-12-25T08:20:14.897Z,109.88
2022-12-25T08:22:35.369Z,181.40
2022-12-25T08:24:55.450Z,211.75
2022-12-25T08:27:15.721Z,214.43
2022-12-25T08:29:35.689Z,81.25
2022-12-25T08:31:55.447Z,83.28
2022-12-25T08:34:15.446Z,197.90
2022-12-25T08:36:35.460Z,116.60
2022-12-25T08:39:02.095Z,245.20
2022-12-25T08:41:23.141Z,218.52
2022-12-25T08:43:43.438Z,219.10
2022-12-25T08:46:04.035Z,23.13
2022-12-25T08:48:24.479Z,186.30
2022-12-25T08:50:49.068Z,435.40
2022-12-25T08:53:08.708Z,327.23
2022-12-25T08:55:28.803Z,271.95
2022-12-25T08:57:51.400Z,32.33
2022-12-25T09:00:12.772Z,85.72
2022-12-25T09:02:32.826Z,116.25
2022-12-25T09:04:52.655Z,50.30
2022-12-25T09:07:12.434Z,23.25
2022-12-25T09:09:32.324Z,19.15
2022-12-25T09:11:52.129Z,284.67
2022-12-25T09:14:13.559Z,132.35
2022-12-25T09:16:33.893Z,41.05
2022-12-25T09:19:01.963Z,227.48
2022-12-25T09:21:22.032Z,212.95
2022-12-25T09:23:42.179Z,237.98
2022-12-25T09:26:04.192Z,216.75
2022-12-25T09:28:24.144Z,310.67
2022-12-25T09:30:43.742Z,182.45
2022-12-25T09:33:03.761Z,270.00
2022-12-25T09:35:23.974Z,68.68
2022-12-25T09:37:44.288Z,205.55
2022-12-25T09:40:04.748Z,130.13
2022-12-25T09:42:27.929Z,54.70
2022-12-25T09:44:54.717Z,144.82
2022-12-25T09:47:19.364Z,150.43
2022-12-25T09:50:01.130Z,77.82
2022-12-25T09:52:55.427Z,74.22
2022-12-25T09:55:20.710Z,37.65
2022-12-25T09:57:41.210Z,102.88
2022-12-25T10:00:01.535Z,75.93
2022-12-25T10:02:43.436Z,59.05
2022-12-25T10:05:24.936Z,50.78
2022-12-25T10:08:03.849Z,95.43
2022-12-25T10:10:59.208Z,134.32
2022-12-25T10:14:06.611Z,107.30
2022-12-25T10:17:09.725Z,123.55
2022-12-25T10:19:33.136Z,119.93
2022-12-25T10:21:57.733Z,101.07
2022-12-25T10:24:17.543Z,52.20
2022-12-25T10:26:37.976Z,48.80
2022-12-25T10:29:00.097Z,43.97
2022-12-25T10:31:23.346Z,34.37
2022-12-25T10:36:03.241Z,39.22
2022-12-25T10:38:23.118Z,45.28
2022-12-25T10:41:20.412Z,47.35
2022-12-25T10:43:53.556Z,32.10
2022-12-25T10:46:15.151Z,39.83
2022-12-25T10:48:35.075Z,36.42
2022-12-25T10:50:55.980Z,44.00
2022-12-25T10:53:27.906Z,42.80
2022-12-25T10:56:02.998Z,37.85
2022-12-25T10:58:23.322Z,29.45
2022-12-25T11:00:56.162Z,22.52
2022-12-25T11:03:26.203Z,23.08
2022-12-25T11:05:50.724Z,42.63
2022-12-25T11:08:20.797Z,32.80
2022-12-25T11:10:43.762Z,17.73
2022-12-25T11:15:41.803Z,20.40
2022-12-25T11:18:03.480Z,14.77
2022-12-25T11:20:24.048Z,28.63
2022-12-25T11:22:47.232Z,25.20
2022-12-25T11:25:27.452Z,29.85
2022-12-25T11:28:00.568Z,37.80
2022-12-25T11:32:54.765Z,33.10
2022-12-25T11:35:18.223Z,30.65
2022-12-25T11:37:53.635Z,33.63
2022-12-25T11:40:23.542Z,38.17
2022-12-25T11:42:52.384Z,36.70
2022-12-25T11:45:20.280Z,39.75
2022-12-25T11:48:05.420Z,98.38
2022-12-25T11:50:31.828Z,95.95
2022-12-25T11:52:52.888Z,34.08
2022-12-25T11:55:19.418Z,36.22
2022-12-25T11:57:41.106Z,38.33
2022-12-25T12:00:08.875Z,31.02
2022-12-25T12:02:42.709Z,29.55
2022-12-25T12:05:22.614Z,29.67
2022-12-25T12:07:58.053Z,28.67
2022-12-25T12:10:23.960Z,78.97
2022-12-25T12:13:00.701Z,38.08
2022-12-25T12:15:45.062Z,22.55
2022-12-25T12:18:09.668Z,21.95
2022-12-25T12:20:32.660Z,22.42
2022-12-25T12:22:53.255Z,20.17
2022-12-25T12:25:18.524Z,21.00
2022-12-25T12:27:40.407Z,21.45
2022-12-25T12:30:00.413Z,16.40
2022-12-25T12:32:45.515Z,15.63
2022-12-25T12:35:27.194Z,18.77
2022-12-25T12:37:54.395Z,17.98
2022-12-25T12:40:37.181Z,23.70
2022-12-25T12:42:57.113Z,19.20
2022-12-25T12:45:20.314Z,17.08
2022-12-25T12:47:42.941Z,17.85
2022-12-25T12:50:05.008Z,18.60
2022-12-25T12:52:37.900Z,26.65
2022-12-25T12:55:05.757Z,44.25
2022-12-25T12:57:29.796Z,29.08
2022-12-25T12:59:49.735Z,16.45
2022-12-25T13:02:40.185Z,14.43
2022-12-25T13:05:03.006Z,13.68
2022-12-25T13:07:43.268Z,14.13
2022-12-25T13:10:19.583Z,14.93
2022-12-25T13:12:39.493Z,12.65
2022-12-25T13:15:00.233Z,18.27
2022-12-25T13:17:24.992Z,17.02
2022-12-25T13:19:45.674Z,25.67
2022-12-25T13:22:06.634Z,16.23
2022-12-25T13:24:29.916Z,22.98
2022-12-25T13:26:50.562Z,14.10
2022-12-25T13:29:32.312Z,14.00
2022-12-25T13:31:52.944Z,18.63
2022-12-25T13:34:24.115Z,15.07
2022-12-25T13:36:44.113Z,20.15
2022-12-25T13:39:07.958Z,14.68
2022-12-25T13:41:54.803Z,16.50
2022-12-25T13:44:19.998Z,17.08
2022-12-25T13:46:39.773Z,14.65
2022-12-25T13:49:00.688Z,12.68
2022-12-25T13:51:21.241Z,13.32
2022-12-25T13:53:41.999Z,12.68
2022-12-25T13:56:01.922Z,13.02
2022-12-25T13:58:26.687Z,12.00
2022-12-25T14:00:49.717Z,10.35
2022-12-25T14:05:42.963Z,13.55
2022-12-25T14:08:12.944Z,11.50
2022-12-25T14:10:36.924Z,7.57
2022-12-25T14:13:02.027Z,7.88
2022-12-25T14:15:23.460Z,6.05
2022-12-25T14:17:44.006Z,5.75
2022-12-25T14:20:08.545Z,8.82
2022-12-25T14:22:31.435Z,7.40
2022-12-25T14:24:51.727Z,8.30
2022-12-25T14:27:24.783Z,7.63
2022-12-25T14:29:47.708Z,8.77
2022-12-25T14:32:15.285Z,10.38
2022-12-25T14:34:35.374Z,12.88
2022-12-25T14:36:56.022Z,10.77
2022-12-25T14:39:34.087Z,8.10
2022-12-25T14:41:54.287Z,8.15
2022-12-25T14:44:29.683Z,7.43
2022-12-25T14:46:51.051Z,4.47
2022-12-25T14:49:24.625Z,3.88
2022-12-25T14:51:44.472Z,5.03
2022-12-25T14:54:14.045Z,4.13
2022-12-25T14:56:46.070Z,5.50
2022-12-25T14:59:09.414Z,5.78
2022-12-25T15:01:41.309Z,4.63
2022-12-25T15:04:15.278Z,6.97
2022-12-25T15:06:56.064Z,6.82
2022-12-25T15:09:18.367Z,5.40
2022-12-25T15:11:41.463Z,5.32
2022-12-25T15:14:01.217Z,4.65
2022-12-25T15:16:25.381Z,5.00
2022-12-25T15:18:46.213Z,6.18
2022-12-25T15:21:32.254Z,4.70
2022-12-25T15:23:53.369Z,7.22
2022-12-25T15:26:13.931Z,7.15
2022-12-25T15:28:34.025Z,7.63
2022-12-25T15:30:54.218Z,6.88
2022-12-25T15:33:16.183Z,7.10
2022-12-25T15:35:38.271Z,7.53
2022-12-25T15:37:58.340Z,8.10
2022-12-25T15:40:20.658Z,8.00
2022-12-25T15:42:44.745Z,9.00
2022-12-25T15:45:14.004Z,9.65
2022-12-25T15:47:33.880Z,9.30
2022-12-25T15:49:53.507Z,11.80
2022-12-25T15:52:15.233Z,9.73
2022-12-25T15:54:35.371Z,8.05
2022-12-25T15:56:57.884Z,8.38
2022-12-25T15:59:19.563Z,11.02
2022-12-25T16:01:42.881Z,8.63
2022-12-25T16:04:03.765Z,9.38
2022-12-25T16:06:25.473Z,11.55
2022-12-25T16:08:45.588Z,11.57
2022-12-25T16:11:05.520Z,9.35
2022-12-25T16:13:25.325Z,9.57
2022-12-25T16:15:46.173Z,9.90
2022-12-25T16:18:06.574Z,9.30
2022-12-25T16:20:26.489Z,11.73
2022-12-25T16:22:46.655Z,9.77
2022-12-25T16:25:13.644Z,11.38
2022-12-25T16:27:33.563Z,11.13
2022-12-25T16:29:56.188Z,12.90
2022-12-25T16:32:16.269Z,15.23
2022-12-25T16:34:36.512Z,11.88
2022-12-25T16:36:56.890Z,10.77
2022-12-25T16:39:16.939Z,12.40
2022-12-25T16:41:36.792Z,12.23
2022-12-25T16:43:56.989Z,16.17
2022-12-25T16:46:20.037Z,15.25
2022-12-25T16:48:40.421Z,17.75
2022-12-25T16:51:00.452Z,16.33
2022-12-25T16:53:20.559Z,17.02
2022-12-25T16:55:40.864Z,16.83
2022-12-25T16:58:00.877Z,16.25
2022-12-25T17:00:21.371Z,16.70
2022-12-25T17:02:41.451Z,17.17
2022-12-25T17:05:01.748Z,17.98
2022-12-25T17:07:21.568Z,18.05
2022-12-25T17:09:44.283Z,19.63
2022-12-25T17:12:06.039Z,18.40
2022-12-25T17:14:25.983Z,20.42
2022-12-25T17:16:46.124Z,22.73
2022-12-25T17:19:12.364Z,22.35
2022-12-25T17:21:33.547Z,21.45
2022-12-25T17:23:59.619Z,20.02
2022-12-25T17:26:23.357Z,22.10
2022-12-25T17:28:43.195Z,21.40
2022-12-25T17:31:05.950Z,23.25
2022-12-25T17:35:45.887Z,23.73
2022-12-25T17:38:05.834Z,21.80
2022-12-25T17:40:26.594Z,26.67
2022-12-25T17:42:46.513Z,22.67
2022-12-25T17:45:06.948Z,25.08
2022-12-25T17:47:28.719Z,29.75
2022-12-25T17:49:49.811Z,28.58
2022-12-25T17:52:09.751Z,27.05
2022-12-25T17:54:30.395Z,29.25
2022-12-25T17:56:50.688Z,28.25
2022-12-25T17:59:17.287Z,27.60
2022-12-25T18:01:39.284Z,28.10
2022-12-25T18:03:59.653Z,31.03
2022-12-25T18:06:23.037Z,34.55
2022-12-25T18:11:10.430Z,35.03
2022-12-25T18:13:30.912Z,29.73
2022-12-25T18:15:51.060Z,32.30
2022-12-25T18:18:11.241Z,30.45
2022-12-25T18:20:39.407Z,30.48
2022-12-25T18:23:00.185Z,30.98
2022-12-25T18:25:19.878Z,28.33
2022-12-25T18:27:39.981Z,35.47
2022-12-25T18:30:00.088Z,31.00
2022-12-25T18:32:26.311Z,32.10
2022-12-25T18:34:51.337Z,30.92
2022-12-25T18:37:11.287Z,31.55
2022-12-25T18:39:32.686Z,28.25
2022-12-25T18:42:13.280Z,26.73
2022-12-25T18:44:33.292Z,28.20
2022-12-25T18:46:54.476Z,28.35
2022-12-25T18:49:14.517Z,25.88
2022-12-25T18:51:37.093Z,25.45
2022-12-25T18:53:57.453Z,51.85
2022-12-25T18:56:18.591Z,35.15
2022-12-25T18:58:39.206Z,38.88
2022-12-25T19:00:59.508Z,31.15
2022-12-25T19:03:19.877Z,27.33
2022-12-25T19:05:40.257Z,33.17
2022-12-25T19:08:00.363Z,44.75
2022-12-25T19:10:20.362Z,36.63
2022-12-25T19:12:40.431Z,30.30
2022-12-25T19:15:00.361Z,31.08
2022-12-25T19:17:20.527Z,38.20
2022-12-25T19:19:40.165Z,44.25
2022-12-25T19:21:59.811Z,47.78
2022-12-25T19:24:20.252Z,47.88
2022-12-25T19:26:43.785Z,34.75
2022-12-25T19:29:04.045Z,48.08
2022-12-25T19:31:25.889Z,52.70
2022-12-25T19:33:46.165Z,49.83
2022-12-25T19:36:10.761Z,44.05
2022-12-25T19:38:30.776Z,36.90
2022-12-25T19:40:59.456Z,43.30
2022-12-25T19:43:19.544Z,41.83
2022-12-25T19:45:40.206Z,37.92
2022-12-25T19:48:00.294Z,28.58
2022-12-25T19:50:20.044Z,36.15
2022-12-25T19:52:40.073Z,38.38
2022-12-25T19:55:00.233Z,40.17
2022-12-25T19:57:20.541Z,50.53
2022-12-25T19:59:40.187Z,41.03
2022-12-25T20:02:00.806Z,44.65
2022-12-25T20:04:20.615Z,39.15
2022-12-25T20:06:41.936Z,44.05
2022-12-25T20:09:08.026Z,47.80
2022-12-25T20:11:30.653Z,37.20
2022-12-25T20:13:51.016Z,43.88
2022-12-25T20:16:11.924Z,62.47
2022-12-25T20:18:31.852Z,47.28
2022-12-25T20:21:00.058Z,38.58
2022-12-25T20:23:19.753Z,54.15
2022-12-25T20:25:41.123Z,43.42
2022-12-25T20:28:00.929Z,93.10
2022-12-25T20:30:21.091Z,36.50
2022-12-25T20:32:46.452Z,82.97
2022-12-25T20:35:15.826Z,93.70
2022-12-25T20:37:35.743Z,74.45
2022-12-25T20:39:56.053Z,73.05
2022-12-25T20:42:15.927Z,75.97
2022-12-25T20:44:35.593Z,81.03
2022-12-25T20:46:58.746Z,80.90
2022-12-25T20:49:18.775Z,73.63
2022-12-25T20:51:40.181Z,64.25
2022-12-25T20:54:00.403Z,53.40
2022-12-25T20:56:25.241Z,62.03
2022-12-25T20:58:45.412Z,58.15
2022-12-25T21:01:11.327Z,60.95
2022-12-25T21:03:31.935Z,60.03
2022-12-25T21:05:55.056Z,48.40
2022-12-25T21:08:25.450Z,49.90
2022-12-25T21:10:50.041Z,60.15
2022-12-25T21:13:10.191Z,59.95
2022-12-25T21:15:30.586Z,48.50
2022-12-25T21:17:50.659Z,47.20
2022-12-25T21:20:10.878Z,63.72
2022-12-25T21:22:30.895Z,61.55
2022-12-25T21:24:52.681Z,59.85
2022-12-25T21:27:12.432Z,49.95
2022-12-25T21:29:32.238Z,56.75
2022-12-25T21:32:12.574Z,46.00
2022-12-25T21:34:32.425Z,53.58
2022-12-25T21:36:53.339Z,61.85
2022-12-25T21:39:14.856Z,57.92
2022-12-25T21:41:37.261Z,47.53
2022-12-25T21:43:57.114Z,47.17
2022-12-25T21:46:17.534Z,38.50
2022-12-25T21:48:38.364Z,31.70
2022-12-25T21:51:34.108Z,29.77
2022-12-25T21:53:53.804Z,29.27
2022-12-25T21:56:13.464Z,30.30
2022-12-25T21:58:32.988Z,30.80
2022-12-25T22:00:54.899Z,25.67
2022-12-25T22:03:15.093Z,24.48
2022-12-25T22:05:54.585Z,22.00
2022-12-25T22:08:14.272Z,20.15
2022-12-25T22:10:36.367Z,23.58
2022-12-25T22:13:15.589Z,21.73
2022-12-25T22:15:54.413Z,23.40
2022-12-25T22:18:33.128Z,22.35
2022-12-25T22:20:53.555Z,24.15
2022-12-25T22:23:15.538Z,27.20
2022-12-25T22:25:35.626Z,28.90
2022-12-25T22:27:55.727Z,27.05
2022-12-25T22:30:25.263Z,29.80
2022-12-25T22:32:46.190Z,26.30
2022-12-25T22:35:06.978Z,35.72
2022-12-25T22:37:26.867Z,38.42
2022-12-25T22:39:47.210Z,41.90
2022-12-25T22:42:07.251Z,43.78
2022-12-25T22:44:29.465Z,46.25
2022-12-25T22:46:50.068Z,57.75
2022-12-25T22:49:10.349Z,43.47
2022-12-25T22:51:30.252Z,42.88
2022-12-25T22:53:49.941Z,44.80
2022-12-25T22:56:10.205Z,44.88
2022-12-25T22:58:30.196Z,48.25
2022-12-25T23:00:49.822Z,53.78
2022-12-25T23:03:10.400Z,54.35
2022-12-25T23:05:30.730Z,58.92
2022-12-25T23:07:50.783Z,52.72
2022-12-25T23:10:11.858Z,54.10
2022-12-25T23:12:49.715Z,59.90
2022-12-25T23:15:10.000Z,62.78
2022-12-25T23:17:48.022Z,48.80
2022-12-25T23:20:27.501Z,34.22
2022-12-25T23:23:06.243Z,33.03
2022-12-25T23:25:47.142Z,35.55
2022-12-25T23:28:07.232Z,60.33
2022-12-25T23:30:28.020Z,30.80
2022-12-25T23:32:47.997Z,32.20
2022-12-25T23:35:09.322Z,28.98
2022-12-25T23:37:29.464Z,47.50
2022-12-25T23:39:51.095Z,59.50
2022-12-25T23:42:11.057Z,32.45
2022-12-25T23:44:30.614Z,40.45
2022-12-25T23:46:52.551Z,48.90
2022-12-25T23:49:13.643Z,33.60
2022-12-25T23:51:44.722Z,28.52
2022-12-25T23:54:05.845Z,28.48
2022-12-25T23:56:27.735Z,46.88
2022-12-25T23:58:51.279Z,25.75
